sensor_id;sensor_type;location;lat;lon;timestamp;P1;durP1;ratioP1;P2;durP2;ratioP2
35847;SDS011;22332;51.954;20.118;2022-12-26T00:01:58;23.20;;;14.20;;
35847;SDS011;22332;51.954;20.118;2022-12-26T00:05:04;23.20;;;13.50;;
35847;SDS011;22332;51.954;20.118;2022-12-26T00:08:11;23.30;;;13.00;;
35847;SDS011;22332;51.954;20.118;2022-12-26T00:11:16;25.80;;;14.40;;
35847;SDS011;22332;51.954;20.118;2022-12-26T00:14:23;24.50;;;14.30;;
35847;SDS011;22332;51.954;20.118;2022-12-26T00:17:28;23.10;;;14.10;;
35847;SDS011;22332;51.954;20.118;2022-12-26T00:20:34;25.80;;;14.20;;
35847;SDS011;22332;51.954;20.118;2022-12-26T00:23:40;22.40;;;13.00;;
35847;SDS011;22332;51.954;20.118;2022-12-26T00:26:46;25.60;;;15.00;;
35847;SDS011;22332;51.954;20.118;2022-12-26T00:29:51;23.30;;;13.20;;
35847;SDS011;22332;51.954;20.118;2022-12-26T00:32:57;21.80;;;13.00;;
35847;SDS011;22332;51.954;20.118;2022-12-26T00:36:03;23.10;;;13.20;;
35847;SDS011;22332;51.954;20.118;2022-12-26T00:39:11;25.90;;;15.20;;
35847;SDS011;22332;51.954;20.118;2022-12-26T00:42:19;23.60;;;14.40;;
35847;SDS011;22332;51.954;20.118;2022-12-26T00:45:24;24.50;;;14.50;;
35847;SDS011;22332;51.954;20.118;2022-12-26T00:48:30;24.20;;;15.00;;
35847;SDS011;22332;51.954;20.118;2022-12-26T00:51:36;26.90;;;15.30;;
35847;SDS011;22332;51.954;20.118;2022-12-26T00:54:41;21.60;;;12.90;;
35847;SDS011;22332;51.954;20.118;2022-12-26T00:57:46;23.60;;;13.00;;
35847;SDS011;22332;51.954;20.118;2022-12-26T01:00:52;24.20;;;14.50;;
35847;SDS011;22332;51.954;20.118;2022-12-26T01:03:58;28.80;;;15.40;;
35847;SDS011;22332;51.954;20.118;2022-12-26T01:07:06;25.50;;;15.00;;
35847;SDS011;22332;51.954;20.118;2022-12-26T01:10:11;28.20;;;16.20;;
35847;SDS011;22332;51.954;20.118;2022-12-26T01:13:18;25.30;;;15.60;;
35847;SDS011;22332;51.954;20.118;2022-12-26T01:16:24;25.30;;;15.90;;
35847;SDS011;22332;51.954;20.118;2022-12-26T01:19:29;24.50;;;13.60;;
35847;SDS011;22332;51.954;20.118;2022-12-26T01:22:35;24.60;;;13.20;;
35847;SDS011;22332;51.954;20.118;2022-12-26T01:25:41;27.10;;;14.50;;
35847;SDS011;22332;51.954;20.118;2022-12-26T01:28:46;27.00;;;15.40;;
35847;SDS011;22332;51.954;20.118;2022-12-26T01:31:53;28.50;;;16.50;;
35847;SDS011;22332;51.954;20.118;2022-12-26T01:34:59;27.70;;;16.60;;
35847;SDS011;22332;51.954;20.118;2022-12-26T01:38:04;28.30;;;15.90;;
35847;SDS011;22332;51.954;20.118;2022-12-26T01:41:10;23.50;;;14.00;;
35847;SDS011;22332;51.954;20.118;2022-12-26T01:48:02;23.50;;;14.60;;
35847;SDS011;22332;51.954;20.118;2022-12-26T01:51:15;26.60;;;15.20;;
35847;SDS011;22332;51.954;20.118;2022-12-26T01:54:25;23.60;;;15.10;;
35847;SDS011;22332;51.954;20.118;2022-12-26T01:57:34;26.20;;;15.80;;
35847;SDS011;22332;51.954;20.118;2022-12-26T02:00:44;25.50;;;15.90;;
35847;SDS011;22332;51.954;20.118;2022-12-26T02:03:51;26.80;;;16.10;;
35847;SDS011;22332;51.954;20.118;2022-12-26T02:07:14;22.90;;;13.40;;
35847;SDS011;22332;51.954;20.118;2022-12-26T02:10:20;22.50;;;13.20;;
35847;SDS011;22332;51.954;20.118;2022-12-26T02:13:30;24.10;;;14.40;;
35847;SDS011;22332;51.954;20.118;2022-12-26T02:16:37;25.10;;;14.40;;
35847;SDS011;22332;51.954;20.118;2022-12-26T02:19:47;25.70;;;14.90;;
35847;SDS011;22332;51.954;20.118;2022-12-26T02:26:40;21.70;;;13.10;;
35847;SDS011;22332;51.954;20.118;2022-12-26T02:30:08;21.40;;;12.80;;
35847;SDS011;22332;51.954;20.118;2022-12-26T02:33:37;21.10;;;11.80;;
35847;SDS011;22332;51.954;20.118;2022-12-26T02:37:02;25.80;;;14.20;;
35847;SDS011;22332;51.954;20.118;2022-12-26T02:40:30;21.30;;;13.40;;
35847;SDS011;22332;51.954;20.118;2022-12-26T02:43:46;21.60;;;13.60;;
35847;SDS011;22332;51.954;20.118;2022-12-26T02:47:24;23.60;;;14.10;;
35847;SDS011;22332;51.954;20.118;2022-12-26T02:50:41;20.80;;;13.10;;
35847;SDS011;22332;51.954;20.118;2022-12-26T02:54:14;21.40;;;12.00;;
35847;SDS011;22332;51.954;20.118;2022-12-26T02:57:48;20.90;;;11.70;;
35847;SDS011;22332;51.954;20.118;2022-12-26T03:01:21;21.10;;;12.40;;
35847;SDS011;22332;51.954;20.118;2022-12-26T03:04:51;21.10;;;12.50;;
35847;SDS011;22332;51.954;20.118;2022-12-26T03:08:19;21.50;;;12.60;;
35847;SDS011;22332;51.954;20.118;2022-12-26T03:11:48;67.40;;;40.60;;
35847;SDS011;22332;51.954;20.118;2022-12-26T03:15:17;26.90;;;15.90;;
35847;SDS011;22332;51.954;20.118;2022-12-26T03:18:25;19.20;;;11.70;;
35847;SDS011;22332;51.954;20.118;2022-12-26T03:21:34;17.40;;;11.40;;
35847;SDS011;22332;51.954;20.118;2022-12-26T03:24:43;21.40;;;12.50;;
35847;SDS011;22332;51.954;20.118;2022-12-26T03:28:02;20.60;;;10.90;;
35847;SDS011;22332;51.954;20.118;2022-12-26T03:31:08;19.10;;;11.40;;
35847;SDS011;22332;51.954;20.118;2022-12-26T03:34:16;20.20;;;12.00;;
35847;SDS011;22332;51.954;20.118;2022-12-26T03:37:28;19.50;;;11.80;;
35847;SDS011;22332;51.954;20.118;2022-12-26T03:40:48;16.80;;;10.20;;
35847;SDS011;22332;51.954;20.118;2022-12-26T03:44:19;18.10;;;10.30;;
35847;SDS011;22332;51.954;20.118;2022-12-26T03:48:03;19.60;;;11.80;;
35847;SDS011;22332;51.954;20.118;2022-12-26T03:51:40;19.50;;;11.80;;
35847;SDS011;22332;51.954;20.118;2022-12-26T03:55:10;19.50;;;12.30;;
35847;SDS011;22332;51.954;20.118;2022-12-26T03:58:39;18.20;;;11.60;;
35847;SDS011;22332;51.954;20.118;2022-12-26T04:02:07;17.70;;;10.80;;
35847;SDS011;22332;51.954;20.118;2022-12-26T04:05:36;18.00;;;11.40;;
35847;SDS011;22332;51.954;20.118;2022-12-26T04:09:05;24.00;;;12.30;;
35847;SDS011;22332;51.954;20.118;2022-12-26T04:12:31;19.30;;;12.20;;
35847;SDS011;22332;51.954;20.118;2022-12-26T04:15:58;18.60;;;12.40;;
35847;SDS011;22332;51.954;20.118;2022-12-26T04:19:30;21.80;;;12.40;;
35847;SDS011;22332;51.954;20.118;2022-12-26T04:22:52;19.00;;;11.60;;
35847;SDS011;22332;51.954;20.118;2022-12-26T04:26:22;20.10;;;10.90;;
35847;SDS011;22332;51.954;20.118;2022-12-26T04:29:51;19.30;;;11.90;;
35847;SDS011;22332;51.954;20.118;2022-12-26T04:33:15;21.80;;;12.60;;
35847;SDS011;22332;51.954;20.118;2022-12-26T04:36:42;21.90;;;12.90;;
35847;SDS011;22332;51.954;20.118;2022-12-26T04:40:11;21.30;;;13.90;;
35847;SDS011;22332;51.954;20.118;2022-12-26T04:43:39;20.40;;;13.50;;
35847;SDS011;22332;51.954;20.118;2022-12-26T04:47:05;21.20;;;13.30;;
35847;SDS011;22332;51.954;20.118;2022-12-26T04:50:11;18.80;;;11.90;;
35847;SDS011;22332;51.954;20.118;2022-12-26T04:53:17;23.40;;;12.90;;
35847;SDS011;22332;51.954;20.118;2022-12-26T04:56:23;20.40;;;13.30;;
35847;SDS011;22332;51.954;20.118;2022-12-26T04:59:29;19.50;;;12.90;;
35847;SDS011;22332;51.954;20.118;2022-12-26T05:02:34;19.80;;;12.40;;
35847;SDS011;22332;51.954;20.118;2022-12-26T05:05:57;18.60;;;12.60;;
35847;SDS011;22332;51.954;20.118;2022-12-26T05:09:21;20.20;;;11.80;;
35847;SDS011;22332;51.954;20.118;2022-12-26T05:12:41;18.80;;;11.30;;
35847;SDS011;22332;51.954;20.118;2022-12-26T05:15:46;19.90;;;12.40;;
35847;SDS011;22332;51.954;20.118;2022-12-26T05:19:10;19.20;;;12.30;;
35847;SDS011;22332;51.954;20.118;2022-12-26T05:22:36;21.20;;;12.90;;
35847;SDS011;22332;51.954;20.118;2022-12-26T05:26:00;22.50;;;12.90;;
35847;SDS011;22332;51.954;20.118;2022-12-26T05:29:25;21.00;;;13.30;;
35847;SDS011;22332;51.954;20.118;2022-12-26T05:32:31;19.20;;;11.40;;
35847;SDS011;22332;51.954;20.118;2022-12-26T05:35:54;18.20;;;12.10;;
35847;SDS011;22332;51.954;20.118;2022-12-26T05:39:01;20.30;;;12.30;;
35847;SDS011;22332;51.954;20.118;2022-12-26T05:42:07;21.20;;;13.10;;
35847;SDS011;22332;51.954;20.118;2022-12-26T05:45:13;21.70;;;13.70;;
35847;SDS011;22332;51.954;20.118;2022-12-26T05:48:18;22.50;;;12.40;;
35847;SDS011;22332;51.954;20.118;2022-12-26T05:51:24;21.60;;;13.20;;
35847;SDS011;22332;51.954;20.118;2022-12-26T05:54:30;18.50;;;11.50;;
35847;SDS011;22332;51.954;20.118;2022-12-26T05:57:35;17.70;;;10.90;;
35847;SDS011;22332;51.954;20.118;2022-12-26T06:00:41;20.50;;;13.00;;
35847;SDS011;22332;51.954;20.118;2022-12-26T06:03:47;21.40;;;12.90;;
35847;SDS011;22332;51.954;20.118;2022-12-26T06:06:54;22.10;;;13.30;;
35847;SDS011;22332;51.954;20.118;2022-12-26T06:09:59;20.60;;;13.30;;
35847;SDS011;22332;51.954;20.118;2022-12-26T06:13:05;22.70;;;13.90;;
35847;SDS011;22332;51.954;20.118;2022-12-26T06:16:11;22.60;;;12.00;;
35847;SDS011;22332;51.954;20.118;2022-12-26T06:19:18;18.80;;;11.30;;
35847;SDS011;22332;51.954;20.118;2022-12-26T06:22:23;19.20;;;12.30;;
35847;SDS011;22332;51.954;20.118;2022-12-26T06:25:31;23.10;;;13.90;;
35847;SDS011;22332;51.954;20.118;2022-12-26T06:28:36;21.40;;;13.60;;
35847;SDS011;22332;51.954;20.118;2022-12-26T06:31:43;21.00;;;13.20;;
35847;SDS011;22332;51.954;20.118;2022-12-26T06:34:48;22.20;;;13.50;;
35847;SDS011;22332;51.954;20.118;2022-12-26T06:37:54;21.90;;;11.60;;
35847;SDS011;22332;51.954;20.118;2022-12-26T06:40:59;20.20;;;11.60;;
35847;SDS011;22332;51.954;20.118;2022-12-26T06:44:07;22.90;;;13.40;;
35847;SDS011;22332;51.954;20.118;2022-12-26T06:47:13;20.90;;;13.30;;
35847;SDS011;22332;51.954;20.118;2022-12-26T06:50:19;22.50;;;13.40;;
35847;SDS011;22332;51.954;20.118;2022-12-26T06:53:25;22.80;;;13.60;;
35847;SDS011;22332;51.954;20.118;2022-12-26T06:56:30;42.80;;;22.90;;
35847;SDS011;22332;51.954;20.118;2022-12-26T06:59:37;21.90;;;12.90;;
35847;SDS011;22332;51.954;20.118;2022-12-26T07:02:42;21.30;;;12.20;;
35847;SDS011;22332;51.954;20.118;2022-12-26T07:05:51;21.80;;;13.80;;
35847;SDS011;22332;51.954;20.118;2022-12-26T07:08:58;21.50;;;14.10;;
35847;SDS011;22332;51.954;20.118;2022-12-26T07:12:06;21.50;;;14.10;;
35847;SDS011;22332;51.954;20.118;2022-12-26T07:15:11;21.10;;;13.80;;
35847;SDS011;22332;51.954;20.118;2022-12-26T07:18:18;22.40;;;12.90;;
35847;SDS011;22332;51.954;20.118;2022-12-26T07:21:24;68.40;;;28.10;;
35847;SDS011;22332;51.954;20.118;2022-12-26T07:24:48;42.70;;;20.00;;
35847;SDS011;22332;51.954;20.118;2022-12-26T07:27:53;50.40;;;24.50;;
35847;SDS011;22332;51.954;20.118;2022-12-26T07:30:59;37.70;;;19.70;;
35847;SDS011;22332;51.954;20.118;2022-12-26T07:34:06;28.90;;;15.30;;
35847;SDS011;22332;51.954;20.118;2022-12-26T07:37:12;215.40;;;74.00;;
35847;SDS011;22332;51.954;20.118;2022-12-26T07:40:17;47.10;;;21.00;;
35847;SDS011;22332;51.954;20.118;2022-12-26T07:43:23;32.40;;;17.10;;
35847;SDS011;22332;51.954;20.118;2022-12-26T07:46:29;51.70;;;25.20;;
35847;SDS011;22332;51.954;20.118;2022-12-26T07:49:35;42.50;;;22.70;;
35847;SDS011;22332;51.954;20.118;2022-12-26T07:52:40;31.50;;;18.90;;
35847;SDS011;22332;51.954;20.118;2022-12-26T07:55:46;27.80;;;17.40;;
35847;SDS011;22332;51.954;20.118;2022-12-26T07:58:55;34.90;;;18.50;;
35847;SDS011;22332;51.954;20.118;2022-12-26T08:02:01;26.60;;;15.30;;
35847;SDS011;22332;51.954;20.118;2022-12-26T08:05:08;23.70;;;14.50;;
35847;SDS011;22332;51.954;20.118;2022-12-26T08:08:13;26.40;;;16.40;;
35847;SDS011;22332;51.954;20.118;2022-12-26T08:11:19;190.70;;;68.80;;
35847;SDS011;22332;51.954;20.118;2022-12-26T08:14:26;48.10;;;23.20;;
35847;SDS011;22332;51.954;20.118;2022-12-26T08:17:32;42.40;;;20.00;;
35847;SDS011;22332;51.954;20.118;2022-12-26T08:20:37;140.20;;;49.90;;
35847;SDS011;22332;51.954;20.118;2022-12-26T08:23:43;52.70;;;24.40;;
35847;SDS011;22332;51.954;20.118;2022-12-26T08:26:52;90.30;;;37.90;;
35847;SDS011;22332;51.954;20.118;2022-12-26T08:29:57;55.20;;;28.00;;
35847;SDS011;22332;51.954;20.118;2022-12-26T08:33:03;116.60;;;54.60;;
35847;SDS011;22332;51.954;20.118;2022-12-26T08:36:09;38.40;;;20.80;;
35847;SDS011;22332;51.954;20.118;2022-12-26T08:39:15;101.50;;;47.50;;
35847;SDS011;22332;51.954;20.118;2022-12-26T08:42:21;39.70;;;21.10;;
35847;SDS011;22332;51.954;20.118;2022-12-26T08:45:27;114.80;;;58.50;;
35847;SDS011;22332;51.954;20.118;2022-12-26T08:48:32;63.00;;;34.60;;
35847;SDS011;22332;51.954;20.118;2022-12-26T08:51:39;74.00;;;41.00;;
35847;SDS011;22332;51.954;20.118;2022-12-26T08:54:45;46.00;;;26.40;;
35847;SDS011;22332;51.954;20.118;2022-12-26T08:57:50;23.90;;;14.90;;
35847;SDS011;22332;51.954;20.118;2022-12-26T09:01:03;56.00;;;33.60;;
35847;SDS011;22332;51.954;20.118;2022-12-26T09:04:11;26.90;;;17.20;;
35847;SDS011;22332;51.954;20.118;2022-12-26T09:07:16;31.60;;;20.60;;
35847;SDS011;22332;51.954;20.118;2022-12-26T09:10:22;25.00;;;16.80;;
35847;SDS011;22332;51.954;20.118;2022-12-26T09:13:27;22.60;;;14.00;;
35847;SDS011;22332;51.954;20.118;2022-12-26T09:16:34;22.00;;;13.70;;
35847;SDS011;22332;51.954;20.118;2022-12-26T09:19:44;24.00;;;14.60;;
35847;SDS011;22332;51.954;20.118;2022-12-26T09:22:49;22.90;;;14.50;;
35847;SDS011;22332;51.954;20.118;2022-12-26T09:26:01;23.30;;;14.90;;
35847;SDS011;22332;51.954;20.118;2022-12-26T09:29:10;23.40;;;15.10;;
35847;SDS011;22332;51.954;20.118;2022-12-26T09:32:16;23.90;;;15.10;;
35847;SDS011;22332;51.954;20.118;2022-12-26T09:35:21;29.80;;;16.70;;
35847;SDS011;22332;51.954;20.118;2022-12-26T09:38:27;37.00;;;20.70;;
35847;SDS011;22332;51.954;20.118;2022-12-26T09:41:38;187.30;;;77.40;;
35847;SDS011;22332;51.954;20.118;2022-12-26T09:44:57;117.20;;;49.20;;
35847;SDS011;22332;51.954;20.118;2022-12-26T09:48:10;130.90;;;53.60;;
35847;SDS011;22332;51.954;20.118;2022-12-26T09:51:22;223.10;;;76.70;;
35847;SDS011;22332;51.954;20.118;2022-12-26T09:54:30;73.40;;;33.00;;
35847;SDS011;22332;51.954;20.118;2022-12-26T09:57:40;40.50;;;23.80;;
35847;SDS011;22332;51.954;20.118;2022-12-26T10:00:49;67.40;;;35.80;;
35847;SDS011;22332;51.954;20.118;2022-12-26T10:03:58;68.30;;;39.40;;
35847;SDS011;22332;51.954;20.118;2022-12-26T10:07:09;31.10;;;19.50;;
35847;SDS011;22332;51.954;20.118;2022-12-26T10:10:24;20.10;;;12.20;;
35847;SDS011;22332;51.954;20.118;2022-12-26T10:13:38;16.80;;;10.40;;
35847;SDS011;22332;51.954;20.118;2022-12-26T10:16:54;16.90;;;10.60;;
35847;SDS011;22332;51.954;20.118;2022-12-26T10:20:09;15.90;;;10.50;;
35847;SDS011;22332;51.954;20.118;2022-12-26T10:23:31;14.60;;;9.80;;
35847;SDS011;22332;51.954;20.118;2022-12-26T10:26:40;15.30;;;9.80;;
35847;SDS011;22332;51.954;20.118;2022-12-26T10:29:49;14.00;;;9.30;;
35847;SDS011;22332;51.954;20.118;2022-12-26T10:33:00;12.20;;;7.50;;
35847;SDS011;22332;51.954;20.118;2022-12-26T10:36:14;16.30;;;8.50;;
35847;SDS011;22332;51.954;20.118;2022-12-26T10:39:32;128.30;;;57.80;;
35847;SDS011;22332;51.954;20.118;2022-12-26T10:42:43;35.20;;;19.80;;
35847;SDS011;22332;51.954;20.118;2022-12-26T10:45:57;20.20;;;13.10;;
35847;SDS011;22332;51.954;20.118;2022-12-26T10:49:19;16.80;;;12.10;;
35847;SDS011;22332;51.954;20.118;2022-12-26T10:52:29;14.60;;;10.20;;
35847;SDS011;22332;51.954;20.118;2022-12-26T10:55:38;60.50;;;25.80;;
35847;SDS011;22332;51.954;20.118;2022-12-26T10:58:43;87.60;;;34.00;;
35847;SDS011;22332;51.954;20.118;2022-12-26T11:01:52;71.40;;;30.90;;
35847;SDS011;22332;51.954;20.118;2022-12-26T11:04:59;94.60;;;35.70;;
35847;SDS011;22332;51.954;20.118;2022-12-26T11:08:14;102.40;;;37.60;;
35847;SDS011;22332;51.954;20.118;2022-12-26T11:11:23;118.90;;;43.60;;
35847;SDS011;22332;51.954;20.118;2022-12-26T11:14:47;200.70;;;59.20;;
35847;SDS011;22332;51.954;20.118;2022-12-26T11:18:07;76.10;;;26.40;;
35847;SDS011;22332;51.954;20.118;2022-12-26T11:21:21;190.90;;;58.80;;
35847;SDS011;22332;51.954;20.118;2022-12-26T11:24:27;95.10;;;35.50;;
35847;SDS011;22332;51.954;20.118;2022-12-26T11:27:33;136.90;;;47.20;;
35847;SDS011;22332;51.954;20.118;2022-12-26T11:30:39;184.60;;;61.20;;
35847;SDS011;22332;51.954;20.118;2022-12-26T11:33:50;97.60;;;35.30;;
35847;SDS011;22332;51.954;20.118;2022-12-26T11:36:58;84.70;;;31.50;;
35847;SDS011;22332;51.954;20.118;2022-12-26T11:40:05;99.30;;;35.10;;
35847;SDS011;22332;51.954;20.118;2022-12-26T11:43:18;130.10;;;49.50;;
35847;SDS011;22332;51.954;20.118;2022-12-26T11:46:34;35.80;;;17.10;;
35847;SDS011;22332;51.954;20.118;2022-12-26T11:49:47;121.70;;;44.30;;
35847;SDS011;22332;51.954;20.118;2022-12-26T11:53:04;104.70;;;38.50;;
35847;SDS011;22332;51.954;20.118;2022-12-26T11:56:18;96.50;;;36.50;;
35847;SDS011;22332;51.954;20.118;2022-12-26T11:59:29;56.80;;;22.20;;
35847;SDS011;22332;51.954;20.118;2022-12-26T12:02:35;64.60;;;24.50;;
35847;SDS011;22332;51.954;20.118;2022-12-26T12:05:44;182.70;;;72.40;;
35847;SDS011;22332;51.954;20.118;2022-12-26T12:09:00;51.50;;;23.60;;
35847;SDS011;22332;51.954;20.118;2022-12-26T12:12:17;22.20;;;12.40;;
35847;SDS011;22332;51.954;20.118;2022-12-26T12:15:30;16.50;;;10.00;;
35847;SDS011;22332;51.954;20.118;2022-12-26T12:18:47;17.60;;;12.60;;
35847;SDS011;22332;51.954;20.118;2022-12-26T12:22:04;13.90;;;10.70;;
35847;SDS011;22332;51.954;20.118;2022-12-26T12:25:23;14.50;;;11.00;;
35847;SDS011;22332;51.954;20.118;2022-12-26T12:28:52;11.40;;;7.60;;
35847;SDS011;22332;51.954;20.118;2022-12-26T12:32:12;36.50;;;17.90;;
35847;SDS011;22332;51.954;20.118;2022-12-26T12:35:23;53.50;;;24.40;;
35847;SDS011;22332;51.954;20.118;2022-12-26T12:38:44;346.60;;;133.10;;
35847;SDS011;22332;51.954;20.118;2022-12-26T12:42:02;214.00;;;74.60;;
35847;SDS011;22332;51.954;20.118;2022-12-26T12:49:04;206.20;;;71.80;;
35847;SDS011;22332;51.954;20.118;2022-12-26T12:52:51;468.90;;;166.40;;
35847;SDS011;22332;51.954;20.118;2022-12-26T12:56:08;178.70;;;61.90;;
35847;SDS011;22332;51.954;20.118;2022-12-26T12:59:42;206.90;;;73.50;;
35847;SDS011;22332;51.954;20.118;2022-12-26T13:02:57;950.10;;;439.00;;
35847;SDS011;22332;51.954;20.118;2022-12-26T13:06:13;535.70;;;203.70;;
35847;SDS011;22332;51.954;20.118;2022-12-26T13:09:27;402.70;;;172.90;;
35847;SDS011;22332;51.954;20.118;2022-12-26T13:12:38;197.50;;;86.90;;
35847;SDS011;22332;51.954;20.118;2022-12-26T13:15:48;220.80;;;98.80;;
35847;SDS011;22332;51.954;20.118;2022-12-26T13:18:58;226.90;;;109.10;;
35847;SDS011;22332;51.954;20.118;2022-12-26T13:22:09;66.60;;;41.00;;
35847;SDS011;22332;51.954;20.118;2022-12-26T13:25:19;53.90;;;31.00;;
35847;SDS011;22332;51.954;20.118;2022-12-26T13:28:29;74.10;;;54.40;;
35847;SDS011;22332;51.954;20.118;2022-12-26T13:31:40;29.00;;;19.70;;
35847;SDS011;22332;51.954;20.118;2022-12-26T13:34:51;46.20;;;27.30;;
35847;SDS011;22332;51.954;20.118;2022-12-26T13:37:59;127.90;;;63.00;;
35847;SDS011;22332;51.954;20.118;2022-12-26T13:41:04;185.50;;;74.00;;
35847;SDS011;22332;51.954;20.118;2022-12-26T13:44:27;35.70;;;16.90;;
35847;SDS011;22332;51.954;20.118;2022-12-26T13:47:43;80.20;;;34.30;;
35847;SDS011;22332;51.954;20.118;2022-12-26T13:50:50;107.70;;;37.50;;
35847;SDS011;22332;51.954;20.118;2022-12-26T13:53:57;45.60;;;18.30;;
35847;SDS011;22332;51.954;20.118;2022-12-26T13:57:09;330.00;;;112.50;;
35847;SDS011;22332;51.954;20.118;2022-12-26T14:00:41;89.20;;;31.10;;
35847;SDS011;22332;51.954;20.118;2022-12-26T14:03:53;52.60;;;22.00;;
35847;SDS011;22332;51.954;20.118;2022-12-26T14:11:05;57.70;;;20.20;;
35847;SDS011;22332;51.954;20.118;2022-12-26T14:14:35;102.20;;;37.40;;
35847;SDS011;22332;51.954;20.118;2022-12-26T14:17:53;83.90;;;37.10;;
35847;SDS011;22332;51.954;20.118;2022-12-26T14:21:27;69.60;;;31.00;;
35847;SDS011;22332;51.954;20.118;2022-12-26T14:28:19;49.00;;;25.50;;
35847;SDS011;22332;51.954;20.118;2022-12-26T14:31:33;118.50;;;72.00;;
35847;SDS011;22332;51.954;20.118;2022-12-26T14:34:52;24.70;;;16.50;;
35847;SDS011;22332;51.954;20.118;2022-12-26T14:38:08;12.00;;;8.30;;
35847;SDS011;22332;51.954;20.118;2022-12-26T14:41:57;11.00;;;7.60;;
35847;SDS011;22332;51.954;20.118;2022-12-26T14:57:48;11.10;;;7.20;;
35847;SDS011;22332;51.954;20.118;2022-12-26T15:01:01;8.90;;;6.30;;
35847;SDS011;22332;51.954;20.118;2022-12-26T15:04:53;9.80;;;6.00;;
35847;SDS011;22332;51.954;20.118;2022-12-26T15:08:15;12.80;;;7.70;;
35847;SDS011;22332;51.954;20.118;2022-12-26T15:11:40;11.70;;;7.60;;
35847;SDS011;22332;51.954;20.118;2022-12-26T15:18:47;12.40;;;8.20;;
35847;SDS011;22332;51.954;20.118;2022-12-26T15:22:12;12.80;;;8.60;;
35847;SDS011;22332;51.954;20.118;2022-12-26T15:25:40;12.40;;;7.70;;
35847;SDS011;22332;51.954;20.118;2022-12-26T15:29:14;14.10;;;9.40;;
35847;SDS011;22332;51.954;20.118;2022-12-26T15:32:38;43.40;;;27.50;;
35847;SDS011;22332;51.954;20.118;2022-12-26T15:35:48;187.50;;;92.90;;
35847;SDS011;22332;51.954;20.118;2022-12-26T15:39:00;224.30;;;106.60;;
35847;SDS011;22332;51.954;20.118;2022-12-26T15:42:17;155.70;;;78.50;;
35847;SDS011;22332;51.954;20.118;2022-12-26T15:45:37;114.20;;;49.00;;
35847;SDS011;22332;51.954;20.118;2022-12-26T15:48:52;95.40;;;41.20;;
35847;SDS011;22332;51.954;20.118;2022-12-26T15:52:08;201.90;;;80.30;;
35847;SDS011;22332;51.954;20.118;2022-12-26T15:59:06;104.10;;;46.90;;
35847;SDS011;22332;51.954;20.118;2022-12-26T16:02:31;69.60;;;34.70;;
35847;SDS011;22332;51.954;20.118;2022-12-26T16:05:44;32.30;;;17.30;;
35847;SDS011;22332;51.954;20.118;2022-12-26T16:08:57;28.60;;;21.40;;
35847;SDS011;22332;51.954;20.118;2022-12-26T16:12:20;14.80;;;9.10;;
35847;SDS011;22332;51.954;20.118;2022-12-26T16:15:28;10.90;;;7.30;;
35847;SDS011;22332;51.954;20.118;2022-12-26T16:18:36;14.40;;;8.80;;
35847;SDS011;22332;51.954;20.118;2022-12-26T16:21:41;14.60;;;8.10;;
35847;SDS011;22332;51.954;20.118;2022-12-26T16:25:09;10.80;;;7.50;;
35847;SDS011;22332;51.954;20.118;2022-12-26T16:28:18;12.80;;;8.40;;
35847;SDS011;22332;51.954;20.118;2022-12-26T16:31:27;12.50;;;9.00;;
35847;SDS011;22332;51.954;20.118;2022-12-26T16:34:34;12.00;;;8.30;;
35847;SDS011;22332;51.954;20.118;2022-12-26T16:37:40;12.00;;;7.00;;
35847;SDS011;22332;51.954;20.118;2022-12-26T16:40:48;13.20;;;8.30;;
35847;SDS011;22332;51.954;20.118;2022-12-26T16:43:55;11.10;;;8.10;;
35847;SDS011;22332;51.954;20.118;2022-12-26T16:47:18;12.50;;;8.50;;
35847;SDS011;22332;51.954;20.118;2022-12-26T16:50:24;12.00;;;8.10;;
35847;SDS011;22332;51.954;20.118;2022-12-26T16:53:43;13.40;;;8.80;;
35847;SDS011;22332;51.954;20.118;2022-12-26T16:56:49;11.10;;;7.60;;
35847;SDS011;22332;51.954;20.118;2022-12-26T17:00:00;12.20;;;6.70;;
35847;SDS011;22332;51.954;20.118;2022-12-26T17:03:07;10.50;;;7.20;;
35847;SDS011;22332;51.954;20.118;2022-12-26T17:06:24;12.80;;;7.70;;
35847;SDS011;22332;51.954;20.118;2022-12-26T17:09:37;11.90;;;7.80;;
35847;SDS011;22332;51.954;20.118;2022-12-26T17:12:47;10.70;;;7.40;;
35847;SDS011;22332;51.954;20.118;2022-12-26T17:15:54;12.50;;;7.60;;
35847;SDS011;22332;51.954;20.118;2022-12-26T17:19:15;13.10;;;7.70;;
35847;SDS011;22332;51.954;20.118;2022-12-26T17:22:29;9.90;;;6.30;;
35847;SDS011;22332;51.954;20.118;2022-12-26T17:25:37;14.60;;;8.00;;
35847;SDS011;22332;51.954;20.118;2022-12-26T17:28:42;13.60;;;8.10;;
35847;SDS011;22332;51.954;20.118;2022-12-26T17:31:48;12.90;;;8.20;;
35847;SDS011;22332;51.954;20.118;2022-12-26T17:34:54;18.80;;;9.90;;
35847;SDS011;22332;51.954;20.118;2022-12-26T17:38:02;12.40;;;7.10;;
35847;SDS011;22332;51.954;20.118;2022-12-26T17:41:13;11.50;;;5.50;;
35847;SDS011;22332;51.954;20.118;2022-12-26T17:44:36;10.40;;;6.20;;
35847;SDS011;22332;51.954;20.118;2022-12-26T17:47:42;13.80;;;7.60;;
35847;SDS011;22332;51.954;20.118;2022-12-26T17:50:49;9.00;;;6.50;;
35847;SDS011;22332;51.954;20.118;2022-12-26T17:53:59;10.50;;;6.20;;
35847;SDS011;22332;51.954;20.118;2022-12-26T17:57:04;15.30;;;7.00;;
35847;SDS011;22332;51.954;20.118;2022-12-26T18:00:16;9.70;;;6.00;;
35847;SDS011;22332;51.954;20.118;2022-12-26T18:03:24;9.50;;;5.80;;
35847;SDS011;22332;51.954;20.118;2022-12-26T18:06:30;13.10;;;7.80;;
35847;SDS011;22332;51.954;20.118;2022-12-26T18:09:35;9.70;;;6.20;;
35847;SDS011;22332;51.954;20.118;2022-12-26T18:12:41;12.00;;;7.10;;
35847;SDS011;22332;51.954;20.118;2022-12-26T18:15:47;9.30;;;6.00;;
35847;SDS011;22332;51.954;20.118;2022-12-26T18:18:53;7.40;;;5.30;;
35847;SDS011;22332;51.954;20.118;2022-12-26T18:22:04;11.20;;;6.60;;
35847;SDS011;22332;51.954;20.118;2022-12-26T18:25:14;9.90;;;6.70;;
35847;SDS011;22332;51.954;20.118;2022-12-26T18:28:21;13.90;;;8.00;;
35847;SDS011;22332;51.954;20.118;2022-12-26T18:31:27;10.10;;;6.70;;
35847;SDS011;22332;51.954;20.118;2022-12-26T18:34:33;11.80;;;6.60;;
35847;SDS011;22332;51.954;20.118;2022-12-26T18:37:38;9.80;;;6.40;;
35847;SDS011;22332;51.954;20.118;2022-12-26T18:40:47;11.70;;;6.70;;
35847;SDS011;22332;51.954;20.118;2022-12-26T18:43:55;10.80;;;7.20;;
35847;SDS011;22332;51.954;20.118;2022-12-26T18:47:01;10.60;;;6.80;;
35847;SDS011;22332;51.954;20.118;2022-12-26T18:50:09;10.50;;;6.20;;
35847;SDS011;22332;51.954;20.118;2022-12-26T18:53:18;8.90;;;5.10;;
35847;SDS011;22332;51.954;20.118;2022-12-26T18:56:23;9.40;;;6.20;;
35847;SDS011;22332;51.954;20.118;2022-12-26T18:59:29;7.20;;;5.60;;
35847;SDS011;22332;51.954;20.118;2022-12-26T19:02:34;9.40;;;6.10;;
35847;SDS011;22332;51.954;20.118;2022-12-26T19:05:40;8.50;;;6.00;;
35847;SDS011;22332;51.954;20.118;2022-12-26T19:08:45;10.00;;;6.00;;
35847;SDS011;22332;51.954;20.118;2022-12-26T19:11:51;8.30;;;4.90;;